Time;durP1;ratioP1;P1;durP2;ratioP2;P2;SDS_P1;SDS_P2;PMS_P1;PMS_P2;Temp;Humidity;BMP_temperature;BMP_pressure;BME280_temperature;BME280_humidity;BME280_pressure;Samples;Min_cycle;Max_cycle;Signal;HPM_P1;HPM_P2
2021/01/24 00:01:02;;;;;;;;;;;3.10;99.90;;;;;;5139871;27;19919;-84
2021/01/24 00:03:28;;;;;;;;;;;3.10;99.90;;;;;;5134473;27;19923;-86
2021/01/24 00:05:53;;;;;;;;;;;3.10;99.90;;;;;;5151018;27;19911;-84
2021/01/24 00:08:23;;;;;;;;;;;3.10;99.90;;;;;;5138808;27;19917;-84
2021/01/24 00:10:51;;;;;;;;;;;3.10;99.90;;;;;;5135514;27;19911;-84
2021/01/24 00:13:19;;;;;;;;;;;3.10;99.90;;;;;;5139118;27;20317;-85
2021/01/24 00:15:52;;;;;;;;;;;3.00;99.90;;;;;;5138922;27;20351;-85
2021/01/24 00:18:21;;;;;;;;;;;3.00;99.90;;;;;;5137832;27;19911;-85
2021/01/24 00:20:50;;;;;;;;;;;3.10;99.90;;;;;;5138517;27;19959;-85
2021/01/24 00:23:18;;;;;;;;;;;3.00;99.90;;;;;;5157314;27;19973;-85
2021/01/24 00:25:56;;;;;;;;;;;3.00;99.90;;;;;;5138534;27;19919;-85
2021/01/24 00:28:32;;;;;;;;;;;3.00;99.90;;;;;;5138591;27;20029;-86
2021/01/24 00:31:04;;;;;;;;;;;3.00;99.90;;;;;;5138696;27;19998;-85
2021/01/24 00:33:33;;;;;;;;;;;3.00;99.90;;;;;;5138347;27;19908;-85
2021/01/24 00:36:11;;;;;;;;;;;3.00;99.90;;;;;;5138252;27;19907;-86
2021/01/24 00:38:43;;;;;;;;;;;3.00;99.90;;;;;;5156904;27;20016;-85
2021/01/24 00:41:20;;;;;;;;;;;3.00;99.90;;;;;;5138442;27;20368;-85
2021/01/24 00:43:52;;;;;;;;;;;3.00;99.90;;;;;;5138095;27;20270;-85
2021/01/24 00:46:17;;;;;;;;;;;3.00;99.90;;;;;;5138818;27;19947;-86
2021/01/24 00:48:43;;;;;;;;;;;3.00;99.90;;;;;;5151793;27;19962;-86
2021/01/24 00:51:15;;;;;;;;;;;2.90;99.90;;;;;;5138199;27;19946;-86
2021/01/24 00:53:43;;;;;;;;;;;2.90;99.90;;;;;;5135360;27;19918;-86
2021/01/24 00:56:14;;;;;;;;;;;2.90;99.90;;;;;;5156637;27;20359;-85
2021/01/24 00:58:43;;;;;;;;;;;2.90;99.90;;;;;;5137521;27;19991;-85
2021/01/24 01:01:11;;;;;;;;;;;2.80;99.90;;;;;;5138069;27;19911;-85
2021/01/24 01:03:40;;;;;;;;;;;2.80;99.90;;;;;;5135224;27;19919;-85
2021/01/24 01:06:25;;;;;;;;;;;2.80;99.90;;;;;;5154478;27;19968;-86
2021/01/24 01:08:56;;;;;;;;;;;2.80;99.90;;;;;;5137217;27;19926;-85
2021/01/24 01:11:22;;;;;;;;;;;2.80;99.90;;;;;;5138005;27;20011;-85
2021/01/24 01:13:55;;;;;;;;;;;2.80;99.90;;;;;;5138401;27;20012;-85
2021/01/24 01:16:32;;;;;;;;;;;2.80;99.90;;;;;;5134971;27;19912;-86
2021/01/24 01:19:00;;;;;;;;;;;2.80;99.90;;;;;;5134968;27;20009;-85
2021/01/24 01:21:29;;;;;;;;;;;2.80;99.90;;;;;;5137566;27;19907;-85
2021/01/24 01:24:07;;;;;;;;;;;2.80;99.90;;;;;;5137871;27;20301;-85
2021/01/24 01:26:43;;;;;;;;;;;2.80;99.90;;;;;;5135254;27;19925;-86
2021/01/24 01:29:12;;;;;;;;;;;2.70;99.90;;;;;;5152692;27;19912;-86
2021/01/24 01:31:45;;;;;;;;;;;2.70;99.90;;;;;;5131061;27;19915;-86
2021/01/24 01:34:27;;;;;;;;;;;2.70;99.90;;;;;;5161893;27;19974;-85
2021/01/24 01:37:00;;;;;;;;;;;2.70;99.90;;;;;;5144794;27;20356;-86
2021/01/24 01:39:29;;;;;;;;;;;2.70;99.90;;;;;;5156282;27;19907;-85
2021/01/24 01:41:55;;;;;;;;;;;2.70;99.90;;;;;;5131541;27;19914;-85
2021/01/24 01:44:20;;;;;;;;;;;2.70;99.90;;;;;;5134489;27;20017;-85
2021/01/24 01:46:47;;;;;;;;;;;2.70;99.90;;;;;;5155902;27;19983;-86
2021/01/24 01:49:13;;;;;;;;;;;2.70;99.90;;;;;;5137297;27;19960;-86
2021/01/24 01:51:55;;;;;;;;;;;2.70;99.90;;;;;;5131055;27;20041;-85
2021/01/24 01:54:29;;;;;;;;;;;2.70;99.90;;;;;;5137151;27;20382;-85
2021/01/24 01:56:57;;;;;;;;;;;2.70;99.90;;;;;;5155547;27;20283;-86
2021/01/24 01:59:26;;;;;;;;;;;2.70;99.90;;;;;;5139084;27;19919;-86
2021/01/24 02:02:07;;;;;;;;;;;2.60;99.90;;;;;;5144940;27;20005;-85
2021/01/24 02:04:44;;;;;;;;;;;2.60;99.90;;;;;;5163236;27;19911;-85
2021/01/24 02:07:20;;;;;;;;;;;2.60;99.90;;;;;;5143676;27;20007;-86
2021/01/24 02:09:58;;;;;;;;;;;2.60;99.90;;;;;;5105276;27;19907;-85
2021/01/24 02:12:43;;;;;;;;;;;2.60;99.90;;;;;;5137551;27;19907;-86
2021/01/24 02:15:11;;;;;;;;;;;2.50;99.90;;;;;;5091974;28;19915;-85
2021/01/24 02:17:45;;;;;;;;;;;2.60;99.90;;;;;;5075278;28;20391;-85
2021/01/24 02:20:30;;;;;;;;;;;2.60;99.90;;;;;;5074764;28;19927;-86
2021/01/24 02:22:55;;;;;;;;;;;2.60;99.90;;;;;;5089212;28;19912;-86
2021/01/24 02:25:26;;;;;;;;;;;2.60;99.90;;;;;;5071871;28;19959;-86
2021/01/24 02:28:15;;;;;;;;;;;2.60;99.90;;;;;;5091811;28;20011;-86
2021/01/24 02:30:44;;;;;;;;;;;2.50;99.90;;;;;;5075168;28;19991;-86
2021/01/24 02:33:14;;;;;;;;;;;2.60;99.90;;;;;;5092261;28;19916;-85
2021/01/24 02:35:43;;;;;;;;;;;2.50;99.90;;;;;;5070809;28;19912;-86
2021/01/24 02:38:12;;;;;;;;;;;2.50;99.90;;;;;;5074934;28;19909;-85
2021/01/24 02:40:48;;;;;;;;;;;2.50;99.90;;;;;;5148298;27;19934;-86
2021/01/24 02:43:22;;;;;;;;;;;2.50;99.90;;;;;;5141070;27;19907;-85
2021/01/24 02:45:49;;;;;;;;;;;2.50;99.90;;;;;;5141025;27;19925;-86
2021/01/24 02:48:16;;;;;;;;;;;2.50;99.90;;;;;;5140860;27;19953;-86
2021/01/24 02:50:47;;;;;;;;;;;2.50;99.90;;;;;;5140984;27;19949;-86
2021/01/24 02:53:14;;;;;;;;;;;2.50;99.90;;;;;;5140671;27;19907;-86
2021/01/24 02:55:40;;;;;;;;;;;2.50;99.90;;;;;;5141014;27;19907;-86
2021/01/24 02:58:07;;;;;;;;;;;2.50;99.90;;;;;;5141192;27;19915;-85
2021/01/24 03:00:38;;;;;;;;;;;2.50;99.90;;;;;;5134805;27;19927;-86
2021/01/24 03:03:26;;;;;;;;;;;2.50;99.90;;;;;;5157204;27;20351;-86
2021/01/24 03:05:54;;;;;;;;;;;2.50;99.90;;;;;;5139933;27;20020;-86
2021/01/24 03:08:23;;;;;;;;;;;2.60;99.90;;;;;;5140392;27;20027;-86
2021/01/24 03:10:49;;;;;;;;;;;2.50;99.90;;;;;;5158479;27;19915;-86
2021/01/24 03:13:20;;;;;;;;;;;2.60;99.90;;;;;;5140147;27;20367;-86
2021/01/24 03:15:50;;;;;;;;;;;2.60;99.90;;;;;;5153033;27;19907;-85
2021/01/24 03:18:19;;;;;;;;;;;2.60;99.90;;;;;;5143413;27;19964;-87
2021/01/24 03:20:46;;;;;;;;;;;2.60;99.90;;;;;;5140231;27;19907;-86
2021/01/24 03:23:12;;;;;;;;;;;2.60;99.90;;;;;;5139465;27;19907;-86
2021/01/24 03:25:39;;;;;;;;;;;2.60;99.90;;;;;;5139486;27;19960;-86
2021/01/24 03:28:07;;;;;;;;;;;2.60;99.90;;;;;;5139708;27;19975;-86
2021/01/24 03:30:35;;;;;;;;;;;2.70;99.90;;;;;;5140066;27;19907;-86
2021/01/24 03:33:04;;;;;;;;;;;2.70;99.90;;;;;;5139515;27;20290;-86
2021/01/24 03:35:37;;;;;;;;;;;2.70;99.90;;;;;;5158487;27;19911;-86
2021/01/24 03:38:06;;;;;;;;;;;2.70;99.90;;;;;;5114922;28;20370;-86
2021/01/24 03:40:34;;;;;;;;;;;2.70;99.90;;;;;;5095182;28;20044;-85
2021/01/24 03:43:00;;;;;;;;;;;2.70;99.90;;;;;;5091561;28;19908;-86
2021/01/24 03:45:26;;;;;;;;;;;2.70;99.90;;;;;;5111461;28;20505;-86
2021/01/24 03:47:56;;;;;;;;;;;2.70;99.90;;;;;;5097775;28;19914;-86
2021/01/24 03:50:24;;;;;;;;;;;2.70;99.90;;;;;;5097180;28;19911;-86
2021/01/24 03:52:50;;;;;;;;;;;2.70;99.90;;;;;;5092561;28;19908;-85
2021/01/24 03:55:15;;;;;;;;;;;2.70;99.90;;;;;;5097028;28;19974;-85
2021/01/24 03:57:44;;;;;;;;;;;2.70;99.90;;;;;;5096991;28;19915;-85
2021/01/24 04:00:13;;;;;;;;;;;2.60;99.90;;;;;;5096593;28;20030;-85
2021/01/24 04:02:41;;;;;;;;;;;2.60;99.90;;;;;;5096451;28;19947;-85
2021/01/24 04:05:07;;;;;;;;;;;2.60;99.90;;;;;;5097063;28;19946;-85
2021/01/24 04:07:43;;;;;;;;;;;2.70;99.90;;;;;;5096973;28;19947;-85
2021/01/24 04:10:12;;;;;;;;;;;2.70;99.90;;;;;;5155723;27;20291;-85
2021/01/24 04:12:41;;;;;;;;;;;2.70;99.90;;;;;;5149545;27;20001;-85
2021/01/24 04:15:07;;;;;;;;;;;2.70;99.90;;;;;;5138813;27;19937;-86
2021/01/24 04:17:32;;;;;;;;;;;2.70;99.90;;;;;;5157207;27;19922;-85
2021/01/24 04:19:58;;;;;;;;;;;2.60;99.90;;;;;;5139006;27;19911;-85
2021/01/24 04:22:26;;;;;;;;;;;2.60;99.90;;;;;;5156945;27;19907;-85
2021/01/24 04:24:51;;;;;;;;;;;2.60;99.90;;;;;;5138446;27;19907;-85
2021/01/24 04:27:25;;;;;;;;;;;2.60;99.90;;;;;;5138067;27;20076;-85
2021/01/24 04:29:50;;;;;;;;;;;2.60;99.90;;;;;;5138577;27;19914;-85
2021/01/24 04:32:16;;;;;;;;;;;2.60;99.90;;;;;;5138192;27;19907;-85
2021/01/24 04:34:44;;;;;;;;;;;2.60;99.90;;;;;;5138005;27;20380;-85
2021/01/24 04:37:16;;;;;;;;;;;2.60;99.90;;;;;;5156849;27;20447;-85
2021/01/24 04:39:42;;;;;;;;;;;2.60;99.90;;;;;;5151011;27;19911;-85
2021/01/24 04:42:08;;;;;;;;;;;2.60;99.90;;;;;;5138426;27;19919;-85
2021/01/24 04:44:34;;;;;;;;;;;2.60;99.90;;;;;;5138577;27;19911;-85
2021/01/24 04:47:03;;;;;;;;;;;2.60;99.90;;;;;;5138444;27;20396;-84
2021/01/24 04:49:29;;;;;;;;;;;2.60;99.90;;;;;;5138323;27;19997;-85
2021/01/24 04:51:57;;;;;;;;;;;2.60;99.90;;;;;;5157402;27;19943;-85
2021/01/24 04:54:23;;;;;;;;;;;2.60;99.90;;;;;;5150934;27;20328;-85
2021/01/24 04:56:49;;;;;;;;;;;2.50;99.90;;;;;;5153341;27;19911;-85
2021/01/24 04:59:15;;;;;;;;;;;2.50;99.90;;;;;;5138996;27;19919;-85
2021/01/24 05:01:42;;;;;;;;;;;2.50;99.90;;;;;;5138137;27;20002;-85
2021/01/24 05:04:08;;;;;;;;;;;2.50;99.90;;;;;;5137612;27;19910;-85
2021/01/24 05:06:38;;;;;;;;;;;2.60;99.90;;;;;;5137970;27;20382;-85
2021/01/24 05:09:04;;;;;;;;;;;2.60;99.90;;;;;;5138056;27;19922;-84
2021/01/24 05:11:32;;;;;;;;;;;2.50;99.90;;;;;;5138294;27;19907;-84
2021/01/24 05:14:14;;;;;;;;;;;2.60;99.90;;;;;;5137785;27;20367;-84
2021/01/24 05:16:41;;;;;;;;;;;2.50;99.90;;;;;;5096040;28;20006;-84
2021/01/24 05:19:07;;;;;;;;;;;2.60;99.90;;;;;;5096236;28;19915;-85
2021/01/24 05:21:35;;;;;;;;;;;2.50;99.90;;;;;;5112866;28;20526;-84
2021/01/24 05:24:00;;;;;;;;;;;2.50;99.90;;;;;;5096558;28;20006;-85
2021/01/24 05:26:26;;;;;;;;;;;2.50;99.90;;;;;;5095479;28;20014;-85
2021/01/24 05:28:52;;;;;;;;;;;2.50;99.90;;;;;;5089520;28;19914;-85
2021/01/24 05:31:27;;;;;;;;;;;2.50;99.90;;;;;;5089241;28;19915;-85
2021/01/24 05:33:55;;;;;;;;;;;2.50;99.90;;;;;;5095293;28;19908;-85
2021/01/24 05:36:23;;;;;;;;;;;2.50;99.90;;;;;;5095768;28;19953;-85
2021/01/24 05:38:56;;;;;;;;;;;2.40;99.90;;;;;;5095408;28;20002;-84
2021/01/24 05:41:22;;;;;;;;;;;2.40;99.90;;;;;;5095881;28;19915;-84
2021/01/24 05:43:48;;;;;;;;;;;2.40;99.90;;;;;;5095802;28;19912;-85
2021/01/24 05:46:14;;;;;;;;;;;2.40;99.90;;;;;;5095631;28;19911;-85
2021/01/24 05:48:50;;;;;;;;;;;2.40;99.90;;;;;;5134515;27;19919;-84
2021/01/24 05:51:24;;;;;;;;;;;2.30;99.90;;;;;;5138172;27;19975;-85
2021/01/24 05:54:00;;;;;;;;;;;2.30;99.90;;;;;;5134792;27;20279;-85
2021/01/24 05:56:25;;;;;;;;;;;2.30;99.90;;;;;;5155990;27;19951;-85
2021/01/24 05:59:02;;;;;;;;;;;2.30;99.90;;;;;;5137109;27;20484;-85
2021/01/24 06:01:37;;;;;;;;;;;2.20;99.90;;;;;;5137724;27;19914;-85
2021/01/24 06:04:03;;;;;;;;;;;2.30;99.90;;;;;;5137161;27;19908;-85
2021/01/24 06:06:29;;;;;;;;;;;2.20;99.90;;;;;;5155715;27;19956;-85
2021/01/24 06:08:54;;;;;;;;;;;2.30;99.90;;;;;;5155831;27;19907;-85
2021/01/24 06:11:24;;;;;;;;;;;2.20;99.90;;;;;;5136955;27;19907;-84
2021/01/24 06:13:53;;;;;;;;;;;2.20;99.90;;;;;;5137177;27;19908;-85
2021/01/24 06:16:22;;;;;;;;;;;2.20;99.90;;;;;;5139937;27;19908;-85
2021/01/24 06:18:57;;;;;;;;;;;2.10;99.90;;;;;;5141447;27;19907;-85
2021/01/24 06:21:30;;;;;;;;;;;2.10;99.90;;;;;;5141418;27;19952;-85
2021/01/24 06:24:00;;;;;;;;;;;2.10;99.90;;;;;;5141617;27;19907;-85
2021/01/24 06:26:38;;;;;;;;;;;2.10;99.90;;;;;;5158174;27;19949;-85
2021/01/24 06:29:05;;;;;;;;;;;2.00;99.90;;;;;;5140590;27;20313;-85
2021/01/24 06:31:32;;;;;;;;;;;2.00;99.90;;;;;;5159443;27;19911;-85
2021/01/24 06:34:03;;;;;;;;;;;2.00;99.90;;;;;;5159301;27;19907;-84
2021/01/24 06:36:30;;;;;;;;;;;2.00;99.90;;;;;;5162428;27;19907;-85
2021/01/24 06:38:56;;;;;;;;;;;2.00;99.90;;;;;;5152612;27;19907;-84
2021/01/24 06:41:41;;;;;;;;;;;2.00;99.90;;;;;;5160228;27;19928;-85
2021/01/24 06:44:27;;;;;;;;;;;1.90;99.90;;;;;;5140906;27;19911;-85
2021/01/24 06:46:52;;;;;;;;;;;1.90;99.90;;;;;;5139784;27;19946;-85
2021/01/24 06:49:36;;;;;;;;;;;2.00;99.90;;;;;;5140771;27;19963;-85
2021/01/24 06:52:16;;;;;;;;;;;2.00;99.90;;;;;;5141257;27;19972;-84
2021/01/24 06:54:42;;;;;;;;;;;2.20;99.90;;;;;;5140599;27;19914;-85
2021/01/24 06:57:08;;;;;;;;;;;2.20;99.90;;;;;;5140951;27;19911;-85
2021/01/24 06:59:37;;;;;;;;;;;2.30;99.90;;;;;;5140132;27;19923;-85
2021/01/24 07:02:17;;;;;;;;;;;2.30;99.90;;;;;;5140835;27;19968;-86
2021/01/24 07:05:03;;;;;;;;;;;2.40;99.90;;;;;;5140573;27;20354;-85
2021/01/24 07:07:32;;;;;;;;;;;2.40;99.90;;;;;;5140124;27;20338;-85
2021/01/24 07:10:08;;;;;;;;;;;2.40;99.90;;;;;;5159178;27;19911;-84
2021/01/24 07:12:46;;;;;;;;;;;2.50;99.90;;;;;;5140636;27;19920;-85
2021/01/24 07:15:21;;;;;;;;;;;2.50;99.90;;;;;;5140164;27;19958;-85
2021/01/24 07:17:54;;;;;;;;;;;2.50;99.90;;;;;;5140737;27;20270;-85
2021/01/24 07:20:20;;;;;;;;;;;2.60;99.90;;;;;;5140085;27;20420;-85
2021/01/24 07:22:49;;;;;;;;;;;2.60;99.90;;;;;;5139988;27;19907;-85
2021/01/24 07:25:16;;;;;;;;;;;2.60;99.90;;;;;;5133613;27;20011;-85
2021/01/24 07:27:42;;;;;;;;;;;2.60;99.90;;;;;;5139810;27;19911;-86
2021/01/24 07:30:08;;;;;;;;;;;2.50;99.90;;;;;;5158740;27;19930;-85
2021/01/24 07:32:41;;;;;;;;;;;2.50;99.90;;;;;;5132447;27;19914;-86
2021/01/24 07:35:28;;;;;;;;;;;2.30;99.90;;;;;;5156061;27;19908;-86
2021/01/24 07:37:54;;;;;;;;;;;2.30;99.90;;;;;;5126561;27;20392;-85
2021/01/24 07:40:23;;;;;;;;;;;2.10;99.90;;;;;;5118499;27;20008;-85
2021/01/24 07:42:58;;;;;;;;;;;2.10;99.90;;;;;;5121579;27;19986;-85
2021/01/24 07:45:26;;;;;;;;;;;2.10;99.90;;;;;;5139718;27;19911;-85
2021/01/24 07:48:01;;;;;;;;;;;2.10;99.90;;;;;;5139446;27;19915;-85
2021/01/24 07:50:29;;;;;;;;;;;2.10;99.90;;;;;;5139657;27;19934;-85
2021/01/24 07:53:06;;;;;;;;;;;2.00;99.90;;;;;;5136007;27;19907;-85
2021/01/24 07:55:40;;;;;;;;;;;2.00;99.90;;;;;;5130305;27;19943;-85
2021/01/24 07:58:10;;;;;;;;;;;2.00;99.90;;;;;;5125291;27;19964;-85
2021/01/24 08:00:38;;;;;;;;;;;2.00;99.90;;;;;;5125887;27;19919;-85
2021/01/24 08:03:11;;;;;;;;;;;1.90;99.90;;;;;;5132786;27;19907;-86
2021/01/24 08:05:46;;;;;;;;;;;2.00;99.90;;;;;;5131059;27;19915;-84
2021/01/24 08:08:12;;;;;;;;;;;1.90;99.90;;;;;;5118809;27;20328;-85
2021/01/24 08:10:40;;;;;;;;;;;1.90;99.90;;;;;;5126652;27;20006;-85
2021/01/24 08:13:16;;;;;;;;;;;2.00;99.90;;;;;;5121035;27;19918;-85
2021/01/24 08:15:47;;;;;;;;;;;2.00;99.90;;;;;;5153035;27;19936;-85
2021/01/24 08:18:12;;;;;;;;;;;2.00;99.90;;;;;;5144549;27;19954;-85
2021/01/24 08:20:41;;;;;;;;;;;2.00;99.90;;;;;;5141163;27;19919;-85
2021/01/24 08:23:07;;;;;;;;;;;2.00;99.90;;;;;;5135216;27;19999;-85
2021/01/24 08:25:33;;;;;;;;;;;2.00;99.90;;;;;;5138411;27;20048;-85
2021/01/24 08:28:00;;;;;;;;;;;2.10;99.90;;;;;;5138443;27;19950;-85
2021/01/24 08:30:33;;;;;;;;;;;2.10;99.90;;;;;;5135896;27;20383;-85
2021/01/24 08:33:03;;;;;;;;;;;2.10;99.90;;;;;;5138575;27;20363;-85
2021/01/24 08:35:31;;;;;;;;;;;2.30;99.90;;;;;;5138679;27;20001;-85
2021/01/24 08:37:56;;;;;;;;;;;2.30;99.90;;;;;;5137838;27;20394;-84
2021/01/24 08:40:29;;;;;;;;;;;2.40;99.90;;;;;;5137296;27;19907;-85
2021/01/24 08:42:55;;;;;;;;;;;2.40;99.90;;;;;;5138223;27;19969;-85
2021/01/24 08:45:22;;;;;;;;;;;2.50;99.90;;;;;;5131524;27;19966;-85
2021/01/24 08:47:52;;;;;;;;;;;2.60;99.90;;;;;;5158708;27;19911;-85
2021/01/24 08:50:18;;;;;;;;;;;2.80;99.90;;;;;;5158359;27;19911;-85
2021/01/24 08:52:51;;;;;;;;;;;2.90;99.90;;;;;;5139808;27;20355;-85
2021/01/24 08:55:17;;;;;;;;;;;3.10;99.90;;;;;;5139208;27;20006;-85
2021/01/24 08:57:43;;;;;;;;;;;3.40;99.90;;;;;;5135652;27;20380;-85
2021/01/24 09:00:09;;;;;;;;;;;3.70;99.90;;;;;;5138071;27;19919;-85
2021/01/24 09:02:36;;;;;;;;;;;4.00;99.90;;;;;;5133478;27;19965;-85
2021/01/24 09:05:06;;;;;;;;;;;4.30;99.90;;;;;;5118422;27;19912;-86
2021/01/24 09:07:36;;;;;;;;;;;4.50;99.90;;;;;;5124556;27;19999;-86
2021/01/24 09:10:25;;;;;;;;;;;4.60;99.90;;;;;;5157098;27;20375;-86
2021/01/24 09:12:55;;;;;;;;;;;4.60;99.90;;;;;;5124275;27;19914;-86
2021/01/24 09:15:22;;;;;;;;;;;4.70;99.90;;;;;;5138363;27;19907;-86
2021/01/24 09:17:48;;;;;;;;;;;4.70;99.90;;;;;;5137705;27;19907;-85
2021/01/24 09:20:13;;;;;;;;;;;4.70;99.90;;;;;;5138632;27;19907;-85
2021/01/24 09:22:39;;;;;;;;;;;4.50;99.90;;;;;;5132020;27;19960;-85
2021/01/24 09:25:05;;;;;;;;;;;4.50;99.90;;;;;;5149490;27;19908;-86
2021/01/24 09:27:31;;;;;;;;;;;4.80;99.90;;;;;;5137716;27;20338;-86
2021/01/24 09:29:57;;;;;;;;;;;4.90;99.90;;;;;;5137963;27;19913;-86
2021/01/24 09:32:22;;;;;;;;;;;5.00;99.90;;;;;;5155747;27;19954;-86
2021/01/24 09:34:48;;;;;;;;;;;5.10;99.90;;;;;;5156135;27;19915;-85
2021/01/24 09:37:13;;;;;;;;;;;5.30;99.90;;;;;;5138124;27;19907;-86
2021/01/24 09:39:39;;;;;;;;;;;5.60;99.90;;;;;;5138309;27;19907;-86
2021/01/24 09:42:05;;;;;;;;;;;6.10;99.90;;;;;;5137520;27;19954;-86
2021/01/24 09:44:37;;;;;;;;;;;6.70;99.90;;;;;;5137727;27;19907;-85
2021/01/24 09:47:02;;;;;;;;;;;7.40;99.90;;;;;;5136986;27;19911;-86
2021/01/24 09:49:28;;;;;;;;;;;7.80;99.90;;;;;;5131318;27;19911;-85
2021/01/24 09:51:53;;;;;;;;;;;7.50;99.90;;;;;;5141190;27;19911;-85
2021/01/24 09:54:19;;;;;;;;;;;6.80;99.90;;;;;;5144722;27;19914;-86
2021/01/24 09:56:45;;;;;;;;;;;6.20;99.90;;;;;;5135991;27;19970;-85
2021/01/24 09:59:11;;;;;;;;;;;5.80;99.90;;;;;;5130552;27;19964;-85
2021/01/24 10:01:37;;;;;;;;;;;5.40;99.90;;;;;;5130198;27;20011;-86
2021/01/24 10:04:03;;;;;;;;;;;5.20;99.90;;;;;;5125064;27;19947;-86
2021/01/24 10:06:29;;;;;;;;;;;5.00;99.90;;;;;;5142858;27;19919;-85
2021/01/24 10:08:54;;;;;;;;;;;4.80;99.90;;;;;;5124638;27;19915;-84
2021/01/24 10:11:21;;;;;;;;;;;4.70;99.90;;;;;;5123952;27;19956;-86
2021/01/24 10:13:47;;;;;;;;;;;4.60;99.90;;;;;;5124564;27;19972;-85
2021/01/24 10:16:16;;;;;;;;;;;4.50;99.90;;;;;;5124138;27;19937;-85
2021/01/24 10:18:42;;;;;;;;;;;4.50;99.90;;;;;;5124512;27;19914;-85
2021/01/24 10:21:07;;;;;;;;;;;4.80;99.90;;;;;;5137642;27;20280;-86
2021/01/24 10:23:33;;;;;;;;;;;5.70;99.90;;;;;;5142066;27;19908;-86
2021/01/24 10:25:59;;;;;;;;;;;7.10;99.90;;;;;;5124004;27;19912;-85
2021/01/24 10:28:25;;;;;;;;;;;8.50;99.90;;;;;;5123339;27;19918;-85
2021/01/24 10:30:51;;;;;;;;;;;9.70;99.90;;;;;;5123062;27;19908;-85
2021/01/24 10:33:20;;;;;;;;;;;10.60;95.90;;;;;;5123941;27;19912;-85
2021/01/24 10:35:45;;;;;;;;;;;11.50;91.80;;;;;;5117310;27;20360;-85
2021/01/24 10:38:11;;;;;;;;;;;12.00;87.90;;;;;;5142129;27;20009;-85
2021/01/24 10:40:37;;;;;;;;;;;12.30;81.50;;;;;;5129625;27;20379;-86
2021/01/24 10:43:03;;;;;;;;;;;12.50;78.40;;;;;;5141367;27;20279;-85
2021/01/24 10:45:30;;;;;;;;;;;12.70;75.30;;;;;;5139862;27;19919;-86
2021/01/24 10:47:56;;;;;;;;;;;12.60;75.10;;;;;;5152017;27;19932;-85
2021/01/24 10:50:22;;;;;;;;;;;11.90;74.90;;;;;;5138879;27;19908;-86
2021/01/24 10:52:47;;;;;;;;;;;10.80;77.90;;;;;;5137617;27;19911;-86
2021/01/24 10:55:13;;;;;;;;;;;9.80;81.50;;;;;;5133553;27;19911;-85
2021/01/24 10:57:39;;;;;;;;;;;9.10;84.40;;;;;;5136637;27;19907;-85
2021/01/24 11:00:05;;;;;;;;;;;8.50;87.90;;;;;;5134112;27;19927;-85
2021/01/24 11:02:31;;;;;;;;;;;8.10;90.60;;;;;;5125939;27;19914;-85
2021/01/24 11:04:57;;;;;;;;;;;7.70;91.60;;;;;;5134520;27;19912;-87
2021/01/24 11:07:27;;;;;;;;;;;7.40;92.90;;;;;;5119580;27;20014;-87
2021/01/24 11:09:53;;;;;;;;;;;7.20;94.70;;;;;;5119802;27;19923;-86
2021/01/24 11:12:18;;;;;;;;;;;7.20;96.70;;;;;;5138312;27;19911;-86
2021/01/24 11:14:44;;;;;;;;;;;7.50;97.40;;;;;;5132902;27;19907;-86
2021/01/24 11:17:09;;;;;;;;;;;8.40;97.10;;;;;;5158425;27;19907;-86
2021/01/24 11:19:38;;;;;;;;;;;9.50;93.50;;;;;;5139630;27;19960;-87
2021/01/24 11:22:04;;;;;;;;;;;10.50;90.00;;;;;;5138355;27;20001;-86
2021/01/24 11:24:37;;;;;;;;;;;11.20;81.20;;;;;;5119977;27;20019;-86
2021/01/24 11:27:05;;;;;;;;;;;11.70;76.00;;;;;;5137560;27;19915;-87
2021/01/24 11:29:31;;;;;;;;;;;11.80;73.30;;;;;;5135201;27;19933;-88
2021/01/24 11:31:57;;;;;;;;;;;11.90;71.30;;;;;;5127248;27;19911;-86
2021/01/24 11:34:23;;;;;;;;;;;12.00;71.80;;;;;;5135661;27;19917;-87
2021/01/24 11:36:49;;;;;;;;;;;12.20;71.10;;;;;;5136752;27;19915;-86
2021/01/24 11:39:15;;;;;;;;;;;12.30;70.00;;;;;;5139361;27;19911;-86
2021/01/24 11:41:41;;;;;;;;;;;12.30;69.50;;;;;;5150120;27;19931;-86
2021/01/24 11:44:06;;;;;;;;;;;12.40;69.60;;;;;;5137811;27;19934;-86
2021/01/24 11:46:32;;;;;;;;;;;12.60;67.70;;;;;;5158212;27;19923;-86
2021/01/24 11:48:58;;;;;;;;;;;13.00;68.20;;;;;;5139019;27;20252;-86
2021/01/24 11:51:24;;;;;;;;;;;13.20;67.00;;;;;;5139008;27;20391;-85
2021/01/24 11:53:52;;;;;;;;;;;13.10;65.60;;;;;;5156445;27;20367;-86
2021/01/24 11:56:18;;;;;;;;;;;13.20;65.40;;;;;;5157640;27;19913;-86
2021/01/24 11:58:44;;;;;;;;;;;13.50;66.10;;;;;;5139587;27;20408;-87
2021/01/24 12:01:10;;;;;;;;;;;14.00;64.00;;;;;;5139403;27;19956;-86
2021/01/24 12:03:35;;;;;;;;;;;14.40;63.40;;;;;;5139527;27;19911;-87
2021/01/24 12:06:01;;;;;;;;;;;14.70;61.30;;;;;;5139032;27;19923;-87
2021/01/24 12:08:31;;;;;;;;;;;14.00;60.40;;;;;;5157703;27;20387;-84
2021/01/24 12:10:56;;;;;;;;;;;13.80;62.70;;;;;;5139848;27;19913;-86
2021/01/24 12:13:22;;;;;;;;;;;14.00;61.90;;;;;;5138757;27;19950;-85
2021/01/24 12:15:48;;;;;;;;;;;14.00;61.00;;;;;;5135698;27;19978;-87
2021/01/24 12:18:16;;;;;;;;;;;13.90;62.00;;;;;;5138802;27;20287;-87
2021/01/24 12:20:45;;;;;;;;;;;14.20;61.80;;;;;;5133330;27;19907;-85
2021/01/24 12:23:13;;;;;;;;;;;14.80;60.60;;;;;;5138090;27;19975;-87
2021/01/24 12:25:39;;;;;;;;;;;14.50;58.50;;;;;;5118254;27;19915;-86
2021/01/24 12:28:05;;;;;;;;;;;13.20;60.70;;;;;;5133142;27;19915;-85
2021/01/24 12:30:31;;;;;;;;;;;12.00;63.80;;;;;;5114860;27;19918;-85
2021/01/24 12:32:56;;;;;;;;;;;11.50;67.30;;;;;;5136438;27;19961;-86
2021/01/24 12:35:25;;;;;;;;;;;11.90;67.00;;;;;;5118427;27;19945;-85
2021/01/24 12:37:54;;;;;;;;;;;12.60;66.00;;;;;;5123087;27;19919;-86
2021/01/24 12:40:24;;;;;;;;;;;13.30;63.50;;;;;;5121077;27;20286;-85
2021/01/24 12:42:49;;;;;;;;;;;13.60;61.20;;;;;;5142813;27;19968;-85
2021/01/24 12:45:22;;;;;;;;;;;13.60;60.10;;;;;;5142404;27;20282;-85
2021/01/24 12:47:47;;;;;;;;;;;13.60;60.30;;;;;;5079026;28;19939;-85
2021/01/24 12:50:14;;;;;;;;;;;13.40;60.20;;;;;;5082111;28;20269;-86
2021/01/24 12:52:41;;;;;;;;;;;12.90;61.20;;;;;;5073281;28;20241;-86
2021/01/24 12:55:07;;;;;;;;;;;12.70;61.10;;;;;;5076036;28;19915;-86
2021/01/24 12:57:36;;;;;;;;;;;12.50;63.00;;;;;;5075768;28;19908;-85
2021/01/24 13:00:03;;;;;;;;;;;12.40;62.30;;;;;;5070223;28;19961;-85
2021/01/24 13:02:30;;;;;;;;;;;11.70;62.80;;;;;;5073128;28;20305;-83
2021/01/24 13:04:58;;;;;;;;;;;10.90;64.80;;;;;;5055795;28;19913;-85
2021/01/24 13:07:28;;;;;;;;;;;10.00;66.70;;;;;;5072681;28;19916;-84
2021/01/24 13:09:54;;;;;;;;;;;9.20;69.00;;;;;;5055719;28;19915;-83
2021/01/24 13:12:19;;;;;;;;;;;8.50;70.90;;;;;;5072632;28;20277;-85
2021/01/24 13:14:45;;;;;;;;;;;8.00;72.80;;;;;;5072537;28;19909;-84
2021/01/24 13:17:10;;;;;;;;;;;7.60;74.70;;;;;;5055581;28;19935;-84
2021/01/24 13:19:36;;;;;;;;;;;7.30;77.70;;;;;;5090094;28;19907;-83
2021/01/24 13:22:02;;;;;;;;;;;7.10;79.50;;;;;;5097220;28;19998;-84
2021/01/24 13:24:28;;;;;;;;;;;6.90;81.00;;;;;;5105837;28;19914;-84
2021/01/24 13:26:55;;;;;;;;;;;6.90;82.20;;;;;;5119572;27;19915;-84
2021/01/24 13:29:22;;;;;;;;;;;7.00;83.30;;;;;;5138863;27;19990;-85
2021/01/24 13:31:48;;;;;;;;;;;7.00;83.60;;;;;;5134146;27;19908;-85
2021/01/24 13:34:14;;;;;;;;;;;7.30;84.90;;;;;;5115373;27;19914;-84
2021/01/24 13:36:41;;;;;;;;;;;7.70;85.20;;;;;;5115339;27;19966;-85
2021/01/24 13:39:07;;;;;;;;;;;8.20;83.90;;;;;;5109034;28;19911;-84
2021/01/24 13:41:32;;;;;;;;;;;8.40;81.10;;;;;;5112366;28;19930;-84
2021/01/24 13:43:58;;;;;;;;;;;8.50;80.00;;;;;;5112312;28;19918;-84
2021/01/24 13:46:24;;;;;;;;;;;8.50;80.10;;;;;;5112620;28;19912;-85
2021/01/24 13:48:49;;;;;;;;;;;8.50;79.10;;;;;;5109566;28;20392;-85
2021/01/24 13:51:15;;;;;;;;;;;8.50;79.90;;;;;;5112389;28;19922;-84
2021/01/24 13:53:41;;;;;;;;;;;8.40;79.80;;;;;;5111875;28;19914;-84
2021/01/24 13:56:09;;;;;;;;;;;8.30;77.70;;;;;;5109746;28;19912;-85
2021/01/24 13:58:35;;;;;;;;;;;8.20;77.70;;;;;;5112210;28;19947;-84
2021/01/24 14:01:00;;;;;;;;;;;8.00;77.60;;;;;;5108795;28;19974;-85
2021/01/24 14:03:26;;;;;;;;;;;7.90;77.10;;;;;;5112072;28;19943;-85
2021/01/24 14:05:52;;;;;;;;;;;7.70;77.60;;;;;;5111970;28;19916;-85
2021/01/24 14:08:17;;;;;;;;;;;7.40;78.40;;;;;;5111725;28;19938;-86
2021/01/24 14:10:43;;;;;;;;;;;7.20;79.20;;;;;;5109427;28;20371;-85
2021/01/24 14:13:09;;;;;;;;;;;7.00;79.90;;;;;;5115209;28;20022;-85
2021/01/24 14:15:36;;;;;;;;;;;6.90;80.20;;;;;;5133160;28;19908;-85
2021/01/24 14:18:02;;;;;;;;;;;6.80;80.80;;;;;;5111863;28;19916;-85
2021/01/24 14:20:27;;;;;;;;;;;6.70;80.80;;;;;;5132820;28;19908;-85
2021/01/24 14:22:55;;;;;;;;;;;6.50;80.90;;;;;;5114772;28;19936;-86
2021/01/24 14:25:24;;;;;;;;;;;6.40;81.70;;;;;;5114774;28;19907;-85
2021/01/24 14:27:52;;;;;;;;;;;6.40;82.00;;;;;;5117944;27;19915;-85
2021/01/24 14:30:18;;;;;;;;;;;6.30;82.60;;;;;;5155669;27;20338;-85
2021/01/24 14:32:47;;;;;;;;;;;6.30;83.10;;;;;;5153128;27;19919;-86
2021/01/24 14:35:13;;;;;;;;;;;6.20;83.40;;;;;;5136267;27;19933;-85
2021/01/24 14:37:39;;;;;;;;;;;6.10;83.90;;;;;;5156960;27;19911;-86